Time;durP1;ratioP1;P1;durP2;ratioP2;P2;SDS_P1;SDS_P2;PMS_P1;PMS_P2;Temp;Humidity;BMP_temperature;BMP_pressure;BME280_temperature;BME280_humidity;BME280_pressure;Samples;Min_cycle;Max_cycle;Signal;HPM_P1;HPM_P2
2022/08/01 00:00:59;;;;;;;0.20;0.10;;;;;;;;;;4790000;29;20133;-88
2022/08/01 00:03:26;;;;;;;0.20;0.10;;;;;;;;;;4798650;29;20054;-86
2022/08/01 00:05:54;;;;;;;0.45;0.45;;;;;;;;;;4824669;29;20189;-87
2022/08/01 00:08:20;;;;;;;0.20;0.10;;;;;;;;;;4805911;29;20050;-82
2022/08/01 00:10:47;;;;;;;0.20;0.10;;;;;;;;;;4796601;29;20056;-86
2022/08/01 00:13:13;;;;;;;0.20;0.10;;;;;;;;;;4805366;29;20046;-84
2022/08/01 00:15:39;;;;;;;0.20;0.10;;;;;;;;;;4791591;29;20046;-84
2022/08/01 00:18:05;;;;;;;0.20;0.10;;;;;;;;;;4806453;29;20056;-86
2022/08/01 00:20:31;;;;;;;0.20;0.10;;;;;;;;;;4794174;29;20686;-83
2022/08/01 00:22:57;;;;;;;0.20;0.10;;;;;;;;;;4799231;29;20494;-84
2022/08/01 00:25:23;;;;;;;0.20;0.10;;;;;;;;;;4808971;29;20650;-81
2022/08/01 00:27:49;;;;;;;0.20;0.10;;;;;;;;;;4807415;29;20048;-82
2022/08/01 00:30:15;;;;;;;0.20;0.10;;;;;;;;;;4792310;29;20111;-81
2022/08/01 00:32:42;;;;;;;0.20;0.10;;;;;;;;;;4818371;29;20132;-82
2022/08/01 00:35:09;;;;;;;0.20;0.10;;;;;;;;;;4807894;29;20065;-80
2022/08/01 00:37:35;;;;;;;0.20;0.10;;;;;;;;;;4820668;29;20073;-80
2022/08/01 00:40:01;;;;;;;0.20;0.10;;;;;;;;;;4818558;29;20042;-80
2022/08/01 00:42:27;;;;;;;0.20;0.10;;;;;;;;;;4802168;29;20561;-81
2022/08/01 00:44:53;;;;;;;0.20;0.10;;;;;;;;;;4806863;29;20501;-81
2022/08/01 00:47:19;;;;;;;0.20;0.10;;;;;;;;;;4807025;29;20243;-81
2022/08/01 00:49:45;;;;;;;0.20;0.10;;;;;;;;;;4826708;29;20053;-81
2022/08/01 00:52:11;;;;;;;0.20;0.10;;;;;;;;;;4818193;29;20073;-80
2022/08/01 00:54:37;;;;;;;0.20;0.10;;;;;;;;;;4792747;29;20046;-80
2022/08/01 00:57:06;;;;;;;0.20;0.10;;;;;;;;;;4821925;29;20041;-80
2022/08/01 00:59:32;;;;;;;0.20;0.10;;;;;;;;;;4818995;29;20149;-79
2022/08/01 01:01:58;;;;;;;0.20;0.10;;;;;;;;;;4802296;29;21180;-82
2022/08/01 01:04:24;;;;;;;0.20;0.10;;;;;;;;;;4806796;29;20046;-82
2022/08/01 01:07:06;;;;;;;0.20;0.10;;;;;;;;;;4818513;29;20041;-81
2022/08/01 01:09:42;;;;;;;0.20;0.20;;;;;;;;;;4816347;29;20133;-80
2022/08/01 01:12:27;;;;;;;0.20;0.10;;;;;;;;;;4821356;29;20073;-82
2022/08/01 01:15:07;;;;;;;0.20;0.10;;;;;;;;;;4824177;29;20119;-82
2022/08/01 01:17:39;;;;;;;0.20;0.10;;;;;;;;;;4820340;29;20129;-81
2022/08/01 01:20:06;;;;;;;0.20;0.10;;;;;;;;;;4804019;29;20042;-81
2022/08/01 01:22:37;;;;;;;0.20;0.10;;;;;;;;;;4825659;29;20041;-80
2022/08/01 01:25:18;;;;;;;0.20;0.10;;;;;;;;;;4810865;29;20042;-81
2022/08/01 01:27:47;;;;;;;0.20;0.10;;;;;;;;;;4808621;29;20042;-80
2022/08/01 01:30:13;;;;;;;0.82;0.38;;;;;;;;;;4825007;29;20050;-81
2022/08/01 01:32:41;;;;;;;0.20;0.10;;;;;;;;;;4822137;29;20041;-81
2022/08/01 01:35:16;;;;;;;0.30;0.30;;;;;;;;;;4825797;29;20116;-82
2022/08/01 01:37:43;;;;;;;0.28;0.20;;;;;;;;;;4825716;29;20117;-81
2022/08/01 01:40:10;;;;;;;0.20;0.10;;;;;;;;;;4813390;29;20062;-84
2022/08/01 01:42:36;;;;;;;0.20;0.10;;;;;;;;;;4811737;29;20042;-84
2022/08/01 01:45:04;;;;;;;0.20;0.10;;;;;;;;;;4810427;29;20110;-86
2022/08/01 01:47:31;;;;;;;0.20;0.10;;;;;;;;;;4809038;29;20078;-83
2022/08/01 01:49:58;;;;;;;0.20;0.10;;;;;;;;;;4808613;29;20137;-86
2022/08/01 01:52:25;;;;;;;0.20;0.20;;;;;;;;;;4810958;29;20055;-82
2022/08/01 01:54:52;;;;;;;0.20;0.17;;;;;;;;;;4819768;29;20041;-84
2022/08/01 01:57:19;;;;;;;0.20;0.10;;;;;;;;;;4804818;29;20041;-85
2022/08/01 01:59:46;;;;;;;0.20;0.10;;;;;;;;;;4823028;29;20042;-83
2022/08/01 02:02:13;;;;;;;0.20;0.10;;;;;;;;;;4826021;29;20056;-82
2022/08/01 02:04:42;;;;;;;0.20;0.10;;;;;;;;;;4820257;29;20042;-83
2022/08/01 02:07:08;;;;;;;0.20;0.10;;;;;;;;;;4826751;29;20050;-83
2022/08/01 02:09:36;;;;;;;0.20;0.10;;;;;;;;;;4797644;29;20537;-82
2022/08/01 02:12:02;;;;;;;0.20;0.10;;;;;;;;;;4809905;29;20052;-82
2022/08/01 02:14:28;;;;;;;0.20;0.10;;;;;;;;;;4807005;29;20410;-83
2022/08/01 02:16:55;;;;;;;0.30;0.30;;;;;;;;;;4821937;29;20121;-82
2022/08/01 02:19:21;;;;;;;0.20;0.10;;;;;;;;;;4821129;29;20073;-81
2022/08/01 02:22:00;;;;;;;0.20;0.10;;;;;;;;;;4808075;29;20056;-83
2022/08/01 02:24:41;;;;;;;0.20;0.10;;;;;;;;;;4820593;29;20151;-83
2022/08/01 02:27:12;;;;;;;0.20;0.10;;;;;;;;;;4809181;29;20095;-83
2022/08/01 02:29:47;;;;;;;0.20;0.10;;;;;;;;;;4823400;29;20049;-82
2022/08/01 02:32:19;;;;;;;0.20;0.10;;;;;;;;;;4825651;29;20046;-83
2022/08/01 02:34:46;;;;;;;0.20;0.10;;;;;;;;;;4816361;29;20038;-83
2022/08/01 02:37:13;;;;;;;0.20;0.10;;;;;;;;;;4806874;29;20046;-84
2022/08/01 02:39:40;;;;;;;0.20;0.10;;;;;;;;;;4811037;29;20041;-83
2022/08/01 02:42:08;;;;;;;0.20;0.10;;;;;;;;;;4796642;29;20413;-83
2022/08/01 02:44:37;;;;;;;0.20;0.10;;;;;;;;;;4813803;29;20225;-82
2022/08/01 02:47:04;;;;;;;0.30;0.20;;;;;;;;;;4823166;29;20508;-83
2022/08/01 02:49:38;;;;;;;0.20;0.10;;;;;;;;;;4809349;29;20201;-84
2022/08/01 02:52:07;;;;;;;0.20;0.10;;;;;;;;;;4804599;29;20076;-83
2022/08/01 02:54:34;;;;;;;0.20;0.10;;;;;;;;;;4804832;29;20572;-83
2022/08/01 02:57:02;;;;;;;0.20;0.10;;;;;;;;;;4822194;29;20043;-83
2022/08/01 02:59:29;;;;;;;0.20;0.10;;;;;;;;;;4823879;29;20913;-83
2022/08/01 03:01:56;;;;;;;0.20;0.10;;;;;;;;;;4824639;29;20069;-85
2022/08/01 03:04:23;;;;;;;0.20;0.10;;;;;;;;;;4793129;29;20061;-87
2022/08/01 03:06:49;;;;;;;0.20;0.10;;;;;;;;;;4822100;29;20061;-84
2022/08/01 03:09:16;;;;;;;0.20;0.10;;;;;;;;;;4796158;29;20098;-84
2022/08/01 03:11:42;;;;;;;0.20;0.10;;;;;;;;;;4804659;29;20042;-83
2022/08/01 03:14:09;;;;;;;0.20;0.10;;;;;;;;;;4805984;29;20174;-83
2022/08/01 03:16:38;;;;;;;0.20;0.10;;;;;;;;;;4817665;29;20053;-83
2022/08/01 03:19:05;;;;;;;0.20;0.10;;;;;;;;;;4808176;29;20050;-85
2022/08/01 03:21:32;;;;;;;0.20;0.10;;;;;;;;;;4806183;29;20134;-87
2022/08/01 03:23:58;;;;;;;0.20;0.10;;;;;;;;;;4806182;29;20512;-84
2022/08/01 03:26:27;;;;;;;0.20;0.10;;;;;;;;;;4788764;29;20050;-83
2022/08/01 03:28:56;;;;;;;0.20;0.10;;;;;;;;;;4808585;29;21259;-87
2022/08/01 03:31:22;;;;;;;0.20;0.10;;;;;;;;;;4806840;29;20059;-82
2022/08/01 03:33:48;;;;;;;0.20;0.10;;;;;;;;;;4807688;29;20081;-85
2022/08/01 03:36:15;;;;;;;0.20;0.10;;;;;;;;;;4792268;29;20075;-84
2022/08/01 03:38:44;;;;;;;0.20;0.10;;;;;;;;;;4808905;29;20042;-83
2022/08/01 03:41:12;;;;;;;0.20;0.10;;;;;;;;;;4819807;29;21177;-83
2022/08/01 03:43:44;;;;;;;0.20;0.10;;;;;;;;;;4802657;29;20045;-84
2022/08/01 03:46:13;;;;;;;0.20;0.10;;;;;;;;;;4809967;29;21322;-83
2022/08/01 03:48:44;;;;;;;0.20;0.10;;;;;;;;;;4799091;29;20050;-85
2022/08/01 03:51:10;;;;;;;0.20;0.10;;;;;;;;;;4804976;29;20041;-84
2022/08/01 03:53:38;;;;;;;0.20;0.10;;;;;;;;;;4805668;29;22001;-84
2022/08/01 03:56:04;;;;;;;0.20;0.10;;;;;;;;;;4810498;29;20434;-85
2022/08/01 03:58:31;;;;;;;0.20;0.10;;;;;;;;;;4804780;29;20046;-86
2022/08/01 04:00:57;;;;;;;0.20;0.10;;;;;;;;;;4792365;29;20046;-83
2022/08/01 04:03:24;;;;;;;0.20;0.10;;;;;;;;;;4808900;29;20131;-83
2022/08/01 04:05:50;;;;;;;0.20;0.10;;;;;;;;;;4823331;29;20054;-85
2022/08/01 04:08:17;;;;;;;0.20;0.10;;;;;;;;;;4822455;29;21006;-84
2022/08/01 04:10:43;;;;;;;0.20;0.10;;;;;;;;;;4815752;29;20054;-84
2022/08/01 04:13:09;;;;;;;0.20;0.10;;;;;;;;;;4815216;29;20057;-83
2022/08/01 04:15:35;;;;;;;0.20;0.10;;;;;;;;;;4814249;29;20042;-88
2022/08/01 04:18:01;;;;;;;0.20;0.10;;;;;;;;;;4815786;29;20128;-85
2022/08/01 04:20:27;;;;;;;0.20;0.10;;;;;;;;;;4823304;29;20057;-87
2022/08/01 04:22:53;;;;;;;0.20;0.10;;;;;;;;;;4808555;29;20049;-87
2022/08/01 04:25:26;;;;;;;0.20;0.10;;;;;;;;;;4798359;29;20111;-84
2022/08/01 04:27:53;;;;;;;0.43;0.10;;;;;;;;;;4813871;29;20234;-85
2022/08/01 04:30:22;;;;;;;0.20;0.10;;;;;;;;;;4814328;29;20050;-85
2022/08/01 04:32:49;;;;;;;0.20;0.10;;;;;;;;;;4818342;29;20082;-85
2022/08/01 04:35:16;;;;;;;0.20;0.10;;;;;;;;;;4831600;29;20049;-87
2022/08/01 04:37:44;;;;;;;0.20;0.10;;;;;;;;;;4828386;29;20051;-84
2022/08/01 04:40:11;;;;;;;0.20;0.10;;;;;;;;;;4810635;29;20054;-84
2022/08/01 04:42:37;;;;;;;0.20;0.10;;;;;;;;;;4806907;29;20042;-85
2022/08/01 04:45:04;;;;;;;0.20;0.10;;;;;;;;;;4795699;29;20087;-84
2022/08/01 04:47:56;;;;;;;0.20;0.10;;;;;;;;;;4826253;29;20046;-89
2022/08/01 04:52:51;;;;;;;0.20;0.10;;;;;;;;;;4865153;23;20508;-83
2022/08/01 04:55:17;;;;;;;0.20;0.10;;;;;;;;;;4845807;29;20080;-85
2022/08/01 04:57:45;;;;;;;0.20;0.10;;;;;;;;;;4829716;29;20037;-85
2022/08/01 05:00:11;;;;;;;0.20;0.10;;;;;;;;;;4839531;29;20045;-86
2022/08/01 05:02:42;;;;;;;0.20;0.10;;;;;;;;;;4833183;29;20048;-90
2022/08/01 05:05:10;;;;;;;0.20;0.10;;;;;;;;;;4822294;29;20049;-86
2022/08/01 05:07:39;;;;;;;0.20;0.10;;;;;;;;;;4821809;29;20098;-89
2022/08/01 05:10:06;;;;;;;0.20;0.10;;;;;;;;;;4840819;29;20083;-85
2022/08/01 05:12:32;;;;;;;0.20;0.10;;;;;;;;;;4820426;29;20050;-88
2022/08/01 05:14:59;;;;;;;0.20;0.10;;;;;;;;;;4821027;29;20041;-85
2022/08/01 05:17:27;;;;;;;0.20;0.10;;;;;;;;;;4828384;29;20037;-89
2022/08/01 05:19:53;;;;;;;0.20;0.10;;;;;;;;;;4813057;29;20037;-85
2022/08/01 05:22:25;;;;;;;0.20;0.10;;;;;;;;;;4826403;29;20072;-90
2022/08/01 05:28:02;;;;;;;0.20;0.10;;;;;;;;;;4839323;29;20573;-90
2022/08/01 05:31:00;;;;;;;;;;;;;;;;;;;;;
2022/08/01 05:33:37;;;;;;;0.20;0.10;;;;;;;;;;4838719;29;20080;-90
2022/08/01 05:36:03;;;;;;;0.20;0.10;;;;;;;;;;4825485;29;20090;-88
2022/08/01 05:38:34;;;;;;;0.20;0.10;;;;;;;;;;4809614;29;20041;-91
2022/08/01 05:43:46;;;;;;;0.20;0.10;;;;;;;;;;4959897;23;20313;-90
2022/08/01 05:46:22;;;;;;;0.20;0.10;;;;;;;;;;4844558;29;20045;-90
2022/08/01 05:55:51;;;;;;;0.20;0.10;;;;;;;;;;4750211;23;3347136;-86
2022/08/01 06:02:36;;;;;;;0.20;0.03;;;;;;;;;;4807098;29;20513;-89
2022/08/01 06:05:17;;;;;;;0.20;0.10;;;;;;;;;;4804052;29;20057;-90
2022/08/01 06:07:49;;;;;;;0.20;0.15;;;;;;;;;;4795183;29;20045;-89
2022/08/01 06:10:21;;;;;;;0.20;0.10;;;;;;;;;;4796975;29;20099;-90
2022/08/01 06:13:04;;;;;;;0.20;0.10;;;;;;;;;;4801509;29;20089;-88
2022/08/01 06:16:13;;;;;;;0.20;0.10;;;;;;;;;;4782773;29;20051;-91
2022/08/01 06:22:30;;;;;;;0.20;0.10;;;;;;;;;;4713167;30;20056;-90
2022/08/01 06:25:01;;;;;;;0.20;0.10;;;;;;;;;;4723712;30;20447;-91
2022/08/01 06:37:57;;;;;;;0.20;0.10;;;;;;;;;;4761474;30;20093;-90
2022/08/01 06:40:50;;;;;;;0.20;0.10;;;;;;;;;;4757397;29;20059;-89
2022/08/01 06:44:04;;;;;;;;;;;;;;;;;;;;;
2022/08/01 07:32:40;;;;;;;0.20;0.10;;;;;;;;;;4799812;29;20046;-88
2022/08/01 07:38:59;;;;;;;0.20;0.10;;;;;;;;;;4741823;30;20086;-90
2022/08/01 07:41:27;;;;;;;0.20;0.10;;;;;;;;;;4728308;30;20160;-90
2022/08/01 07:47:43;;;;;;;0.20;0.10;;;;;;;;;;4705598;30;20178;-89
2022/08/01 07:50:31;;;;;;;0.20;0.10;;;;;;;;;;4748665;29;20134;-91
2022/08/01 07:56:10;;;;;;;0.20;0.10;;;;;;;;;;4864191;23;20386;-88
2022/08/01 07:59:14;;;;;;;0.20;0.10;;;;;;;;;;4823253;29;20523;-89
2022/08/01 08:02:05;;;;;;;0.20;0.10;;;;;;;;;;4820221;29;20057;-88
2022/08/01 08:11:36;;;;;;;0.20;0.10;;;;;;;;;;4858135;29;20332;-89
2022/08/01 08:14:33;;;;;;;0.20;0.10;;;;;;;;;;4864416;23;20328;-88
2022/08/01 08:40:25;;;;;;;0.20;0.10;;;;;;;;;;4860629;29;20053;-86
2022/08/01 09:02:48;;;;;;;0.20;0.10;;;;;;;;;;4846365;29;20049;-90
2022/08/01 09:08:41;;;;;;;0.20;0.10;;;;;;;;;;4847495;29;20139;-85
2022/08/01 09:11:11;;;;;;;0.40;0.20;;;;;;;;;;4856454;23;20041;-86
2022/08/01 09:13:37;;;;;;;0.20;0.10;;;;;;;;;;4809905;29;20077;-84
2022/08/01 09:16:05;;;;;;;0.30;0.30;;;;;;;;;;4813987;29;20041;-86
2022/08/01 09:18:42;;;;;;;0.20;0.13;;;;;;;;;;4822537;29;20037;-88
2022/08/01 09:21:14;;;;;;;0.20;0.10;;;;;;;;;;4808106;29;20593;-86
2022/08/01 09:23:42;;;;;;;0.20;0.10;;;;;;;;;;4823249;29;20053;-86
2022/08/01 09:26:11;;;;;;;0.20;0.10;;;;;;;;;;4804409;29;20048;-88
2022/08/01 09:28:47;;;;;;;0.20;0.10;;;;;;;;;;4828478;29;20052;-88
2022/08/01 09:31:16;;;;;;;0.20;0.10;;;;;;;;;;4793277;29;20042;-86
2022/08/01 09:33:49;;;;;;;0.20;0.10;;;;;;;;;;4806891;29;20077;-87
2022/08/01 09:36:18;;;;;;;0.20;0.10;;;;;;;;;;4822290;29;20052;-89
2022/08/01 09:38:44;;;;;;;0.20;0.10;;;;;;;;;;4807994;29;20478;-87
2022/08/01 09:41:11;;;;;;;0.20;0.10;;;;;;;;;;4793882;29;20380;-89
2022/08/01 09:43:52;;;;;;;0.20;0.10;;;;;;;;;;4815015;29;20124;-89
2022/08/01 09:46:18;;;;;;;0.20;0.10;;;;;;;;;;4812245;29;20061;-87
2022/08/01 09:49:01;;;;;;;0.20;0.10;;;;;;;;;;4809214;29;20063;-89
2022/08/01 09:51:32;;;;;;;0.20;0.10;;;;;;;;;;4810897;29;20408;-86
2022/08/01 09:54:27;;;;;;;0.20;0.10;;;;;;;;;;4813187;29;20428;-89
2022/08/01 09:56:54;;;;;;;0.20;0.10;;;;;;;;;;4804979;29;20339;-86
2022/08/01 09:59:41;;;;;;;0.20;0.10;;;;;;;;;;4797587;29;20050;-88
2022/08/01 10:02:15;;;;;;;0.20;0.10;;;;;;;;;;4798049;29;20080;-84
2022/08/01 10:04:51;;;;;;;0.20;0.10;;;;;;;;;;4806825;29;20046;-83
2022/08/01 10:07:17;;;;;;;0.20;0.10;;;;;;;;;;4805653;29;20639;-83
2022/08/01 10:09:44;;;;;;;0.20;0.10;;;;;;;;;;4798103;29;20493;-85
2022/08/01 10:12:11;;;;;;;0.20;0.20;;;;;;;;;;4800672;29;20049;-88
2022/08/01 10:14:38;;;;;;;0.20;0.10;;;;;;;;;;4808508;29;20137;-90
2022/08/01 10:17:07;;;;;;;0.20;0.10;;;;;;;;;;4799984;29;20588;-88
2022/08/01 10:19:57;;;;;;;0.20;0.10;;;;;;;;;;4810602;29;20104;-91
2022/08/01 10:22:26;;;;;;;0.20;0.10;;;;;;;;;;4824521;29;20081;-88
2022/08/01 10:24:55;;;;;;;0.20;0.10;;;;;;;;;;4796176;29;20234;-86
2022/08/01 10:27:33;;;;;;;0.20;0.10;;;;;;;;;;4802376;29;20057;-88
2022/08/01 10:30:04;;;;;;;0.20;0.10;;;;;;;;;;4783290;29;20042;-82
2022/08/01 10:32:31;;;;;;;0.20;0.10;;;;;;;;;;4814083;29;20048;-88
2022/08/01 10:34:58;;;;;;;0.20;0.10;;;;;;;;;;4794029;29;20051;-87
2022/08/01 10:37:24;;;;;;;0.20;0.10;;;;;;;;;;4796204;29;20034;-86
2022/08/01 10:39:51;;;;;;;0.20;0.10;;;;;;;;;;4788874;29;20042;-86
2022/08/01 10:42:18;;;;;;;0.20;0.10;;;;;;;;;;4812502;29;20137;-81
2022/08/01 10:44:47;;;;;;;0.20;0.10;;;;;;;;;;4807088;29;20054;-83
2022/08/01 10:47:18;;;;;;;0.20;0.10;;;;;;;;;;4807196;29;20075;-91
2022/08/01 10:49:50;;;;;;;0.20;0.10;;;;;;;;;;4789296;29;20470;-84
2022/08/01 10:52:17;;;;;;;0.20;0.10;;;;;;;;;;4799981;29;20034;-87
2022/08/01 10:54:46;;;;;;;0.45;0.30;;;;;;;;;;4808606;29;20079;-85
2022/08/01 10:57:17;;;;;;;0.20;0.10;;;;;;;;;;4797554;29;20037;-87
2022/08/01 10:59:49;;;;;;;0.20;0.10;;;;;;;;;;4797222;29;20050;-84
2022/08/01 11:02:27;;;;;;;0.20;0.10;;;;;;;;;;4810103;29;20054;-86
2022/08/01 11:04:56;;;;;;;0.20;0.10;;;;;;;;;;4791002;29;20093;-85
2022/08/01 11:07:45;;;;;;;0.20;0.10;;;;;;;;;;4819004;29;20054;-86
2022/08/01 11:10:33;;;;;;;0.20;0.10;;;;;;;;;;4804800;29;20058;-88
2022/08/01 11:13:05;;;;;;;0.20;0.10;;;;;;;;;;4806260;29;20124;-86
2022/08/01 11:15:31;;;;;;;0.20;0.10;;;;;;;;;;4804979;29;20045;-86
2022/08/01 11:18:01;;;;;;;0.20;0.10;;;;;;;;;;4796788;29;20124;-85
2022/08/01 11:20:48;;;;;;;;;;;;;;;;;;;;;
2022/08/01 11:23:23;;;;;;;0.20;0.10;;;;;;;;;;4799101;29;20064;-85
2022/08/01 11:26:17;;;;;;;0.20;0.10;;;;;;;;;;4818606;29;20056;-88
2022/08/01 11:28:47;;;;;;;0.20;0.10;;;;;;;;;;4806533;29;20096;-87
2022/08/01 11:31:16;;;;;;;0.20;0.10;;;;;;;;;;4797206;29;20081;-84
2022/08/01 11:36:38;;;;;;;0.20;0.10;;;;;;;;;;4785266;29;20061;-82
2022/08/01 11:39:07;;;;;;;0.30;0.30;;;;;;;;;;4804950;29;20058;-87
2022/08/01 11:41:43;;;;;;;0.20;0.10;;;;;;;;;;4796680;29;21569;-85
2022/08/01 11:44:13;;;;;;;0.20;0.10;;;;;;;;;;4795525;29;20421;-83
2022/08/01 11:46:49;;;;;;;0.20;0.10;;;;;;;;;;4819850;29;20050;-83
2022/08/01 11:49:34;;;;;;;0.20;0.10;;;;;;;;;;4825221;29;20049;-83
2022/08/01 11:52:18;;;;;;;0.20;0.10;;;;;;;;;;4809324;29;20394;-86
2022/08/01 11:54:51;;;;;;;0.20;0.10;;;;;;;;;;4814601;29;20049;-85
2022/08/01 11:57:34;;;;;;;0.20;0.10;;;;;;;;;;4812930;29;20061;-85
2022/08/01 12:00:19;;;;;;;0.20;0.10;;;;;;;;;;4807343;29;20150;-86
2022/08/01 12:02:46;;;;;;;0.20;0.10;;;;;;;;;;4832240;29;20409;-82
2022/08/01 12:05:23;;;;;;;0.20;0.10;;;;;;;;;;4809741;29;20129;-84
2022/08/01 12:07:50;;;;;;;0.20;0.10;;;;;;;;;;4808792;29;20057;-82
2022/08/01 12:10:23;;;;;;;0.20;0.10;;;;;;;;;;4821913;29;20540;-86
2022/08/01 12:12:59;;;;;;;0.20;0.10;;;;;;;;;;4820799;29;20053;-85
2022/08/01 12:15:29;;;;;;;0.20;0.10;;;;;;;;;;4807604;29;20059;-85
2022/08/01 12:17:56;;;;;;;0.20;0.10;;;;;;;;;;4810743;29;20364;-83
2022/08/01 12:20:23;;;;;;;0.20;0.10;;;;;;;;;;4811134;29;20049;-84
2022/08/01 12:22:53;;;;;;;0.20;0.10;;;;;;;;;;4806488;29;20073;-81
2022/08/01 12:25:20;;;;;;;0.20;0.10;;;;;;;;;;4811365;29;20050;-86
2022/08/01 12:27:46;;;;;;;0.20;0.10;;;;;;;;;;4823005;29;20721;-84
2022/08/01 12:30:23;;;;;;;0.20;0.10;;;;;;;;;;4813752;29;20348;-85
2022/08/01 12:32:50;;;;;;;0.20;0.10;;;;;;;;;;4823996;29;20355;-86
2022/08/01 12:35:17;;;;;;;0.20;0.10;;;;;;;;;;4825796;29;20072;-82
2022/08/01 12:37:57;;;;;;;0.20;0.10;;;;;;;;;;4810733;29;20050;-88
2022/08/01 12:40:23;;;;;;;0.20;0.10;;;;;;;;;;4809431;29;20060;-85
2022/08/01 12:42:54;;;;;;;0.20;0.10;;;;;;;;;;4787072;29;20125;-87
2022/08/01 12:45:21;;;;;;;0.20;0.10;;;;;;;;;;4800281;29;20091;-84
2022/08/01 12:47:48;;;;;;;0.20;0.10;;;;;;;;;;4799606;29;20164;-84
2022/08/01 12:50:19;;;;;;;0.20;0.10;;;;;;;;;;4792166;29;20038;-83
2022/08/01 12:52:45;;;;;;;0.20;0.10;;;;;;;;;;4794247;29;20486;-83
2022/08/01 12:55:11;;;;;;;0.20;0.10;;;;;;;;;;4807744;29;20125;-84
2022/08/01 12:57:42;;;;;;;0.20;0.10;;;;;;;;;;4808497;29;20049;-83
2022/08/01 13:00:16;;;;;;;0.20;0.10;;;;;;;;;;4794385;29;20039;-83
2022/08/01 13:02:43;;;;;;;0.20;0.10;;;;;;;;;;4815024;29;20144;-83
2022/08/01 13:05:10;;;;;;;0.20;0.10;;;;;;;;;;4790861;29;20043;-82
2022/08/01 13:07:45;;;;;;;0.20;0.10;;;;;;;;;;4808367;29;20050;-84
2022/08/01 13:10:11;;;;;;;0.20;0.10;;;;;;;;;;4806502;29;20034;-84
2022/08/01 13:12:39;;;;;;;0.20;0.10;;;;;;;;;;4811022;29;20060;-83
2022/08/01 13:15:39;;;;;;;0.20;0.10;;;;;;;;;;4813234;29;20107;-83
2022/08/01 13:18:24;;;;;;;0.20;0.10;;;;;;;;;;4782203;29;20046;-83
2022/08/01 13:20:50;;;;;;;0.20;0.10;;;;;;;;;;4808419;29;20172;-83
2022/08/01 13:23:17;;;;;;;0.25;0.17;;;;;;;;;;4807933;29;20623;-85
2022/08/01 13:26:02;;;;;;;0.20;0.10;;;;;;;;;;4810364;29;20052;-84
2022/08/01 13:28:28;;;;;;;0.20;0.10;;;;;;;;;;4815372;29;20042;-84
2022/08/01 13:31:05;;;;;;;0.20;0.10;;;;;;;;;;4806821;29;20034;-85
2022/08/01 13:33:42;;;;;;;0.20;0.10;;;;;;;;;;4827587;29;20587;-86
2022/08/01 13:36:08;;;;;;;0.20;0.10;;;;;;;;;;4799920;29;20042;-86
2022/08/01 13:41:18;;;;;;;0.20;0.10;;;;;;;;;;4824642;29;20146;-84
2022/08/01 13:43:44;;;;;;;0.20;0.10;;;;;;;;;;4809988;29;20508;-84
2022/08/01 13:46:14;;;;;;;0.20;0.10;;;;;;;;;;4810959;29;20592;-86
2022/08/01 13:48:40;;;;;;;0.20;0.10;;;;;;;;;;4796304;29;20045;-86
2022/08/01 13:51:06;;;;;;;0.20;0.10;;;;;;;;;;4806327;29;20176;-83
2022/08/01 13:53:32;;;;;;;0.20;0.10;;;;;;;;;;4811602;29;20482;-83
2022/08/01 13:55:58;;;;;;;0.20;0.10;;;;;;;;;;4805568;29;20160;-85
2022/08/01 13:58:24;;;;;;;0.20;0.10;;;;;;;;;;4829110;29;20048;-86
2022/08/01 14:00:50;;;;;;;0.20;0.10;;;;;;;;;;4804697;29;20052;-84
2022/08/01 14:03:17;;;;;;;0.20;0.10;;;;;;;;;;4822684;29;20077;-82
2022/08/01 14:05:43;;;;;;;0.20;0.10;;;;;;;;;;4808146;29;20050;-88
2022/08/01 14:08:10;;;;;;;0.20;0.10;;;;;;;;;;4796378;29;20791;-84
2022/08/01 14:10:45;;;;;;;0.20;0.10;;;;;;;;;;4829586;29;20053;-84
2022/08/01 14:13:11;;;;;;;0.20;0.10;;;;;;;;;;4808350;29;20041;-83
2022/08/01 14:15:37;;;;;;;0.20;0.10;;;;;;;;;;4794881;29;20084;-85
2022/08/01 14:18:03;;;;;;;0.20;0.10;;;;;;;;;;4786924;29;20595;-84
2022/08/01 14:20:29;;;;;;;0.20;0.10;;;;;;;;;;4821031;29;20044;-82
2022/08/01 14:23:05;;;;;;;0.20;0.10;;;;;;;;;;4794456;29;20425;-87
2022/08/01 14:25:34;;;;;;;0.20;0.10;;;;;;;;;;4795703;29;20042;-84
2022/08/01 14:28:00;;;;;;;0.20;0.10;;;;;;;;;;4804859;29;20042;-84
2022/08/01 14:30:26;;;;;;;0.20;0.10;;;;;;;;;;4795248;29;20668;-84
2022/08/01 14:32:52;;;;;;;0.20;0.10;;;;;;;;;;4811015;29;20046;-85
2022/08/01 14:35:18;;;;;;;0.20;0.10;;;;;;;;;;4812143;29;20042;-86
2022/08/01 14:37:44;;;;;;;0.20;0.10;;;;;;;;;;4822411;29;20038;-85
2022/08/01 14:40:11;;;;;;;0.20;0.10;;;;;;;;;;4813270;29;20562;-84
2022/08/01 14:42:38;;;;;;;0.20;0.10;;;;;;;;;;4803098;29;20477;-84
2022/08/01 14:45:08;;;;;;;0.20;0.10;;;;;;;;;;4831548;29;20046;-82
2022/08/01 14:47:34;;;;;;;0.20;0.10;;;;;;;;;;4814385;29;20046;-83
2022/08/01 14:50:00;;;;;;;0.20;0.10;;;;;;;;;;4835501;29;20520;-84
2022/08/01 14:52:26;;;;;;;0.20;0.10;;;;;;;;;;4816036;29;20532;-83
2022/08/01 14:54:52;;;;;;;0.20;0.10;;;;;;;;;;4817535;29;20049;-81
2022/08/01 14:57:18;;;;;;;0.20;0.10;;;;;;;;;;4813817;29;20049;-84
2022/08/01 14:59:45;;;;;;;0.20;0.10;;;;;;;;;;4798074;29;20052;-84
2022/08/01 15:02:11;;;;;;;0.20;0.10;;;;;;;;;;4829396;29;20069;-82
2022/08/01 15:04:37;;;;;;;0.20;0.10;;;;;;;;;;4808103;29;20049;-84
2022/08/01 15:07:03;;;;;;;0.20;0.10;;;;;;;;;;4816028;29;20046;-82
2022/08/01 15:09:29;;;;;;;0.20;0.10;;;;;;;;;;4795970;29;20289;-83
2022/08/01 15:15:28;;;;;;;;;;;;;;;;;;4747558;30;20055;-84
2022/08/01 15:17:57;;;;;;;0.20;0.10;;;;;;;;;;4749714;29;19936;-90
2022/08/01 15:20:26;;;;;;;0.20;0.10;;;;;;;;;;4795784;29;20054;-88
2022/08/01 15:23:01;;;;;;;0.20;0.10;;;;;;;;;;4809352;29;20053;-84
2022/08/01 15:25:30;;;;;;;0.20;0.10;;;;;;;;;;4821705;29;20045;-87
2022/08/01 15:27:57;;;;;;;0.20;0.10;;;;;;;;;;4823538;29;20050;-86
2022/08/01 15:30:23;;;;;;;0.20;0.10;;;;;;;;;;4823380;29;20122;-85
2022/08/01 15:32:49;;;;;;;0.20;0.10;;;;;;;;;;4841983;29;20102;-86
2022/08/01 15:35:15;;;;;;;0.20;0.10;;;;;;;;;;4805868;29;20125;-90
2022/08/01 15:37:42;;;;;;;0.20;0.10;;;;;;;;;;4825151;29;20543;-85
2022/08/01 15:40:13;;;;;;;0.20;0.10;;;;;;;;;;4822356;29;20401;-86
2022/08/01 15:42:44;;;;;;;0.20;0.10;;;;;;;;;;4815747;29;20053;-87
2022/08/01 15:45:12;;;;;;;0.20;0.10;;;;;;;;;;4815312;29;20041;-88
2022/08/01 15:47:38;;;;;;;0.20;0.10;;;;;;;;;;4831265;29;20053;-85
2022/08/01 15:50:05;;;;;;;0.20;0.10;;;;;;;;;;4816496;29;20047;-84
2022/08/01 15:52:31;;;;;;;0.20;0.10;;;;;;;;;;4828468;29;20049;-88
2022/08/01 15:54:57;;;;;;;0.20;0.10;;;;;;;;;;4818511;29;20048;-85
2022/08/01 15:57:23;;;;;;;0.20;0.10;;;;;;;;;;4815456;29;20037;-87
2022/08/01 15:59:49;;;;;;;0.20;0.10;;;;;;;;;;4799279;29;20045;-85
2022/08/01 16:02:16;;;;;;;0.20;0.10;;;;;;;;;;4819876;29;20500;-87
2022/08/01 16:04:42;;;;;;;0.20;0.10;;;;;;;;;;4801673;29;20133;-86
2022/08/01 16:07:08;;;;;;;0.20;0.10;;;;;;;;;;4806883;29;20048;-87
2022/08/01 16:09:34;;;;;;;0.20;0.10;;;;;;;;;;4819820;29;20671;-88
2022/08/01 16:12:00;;;;;;;0.20;0.10;;;;;;;;;;4806400;29;20420;-88
2022/08/01 16:14:34;;;;;;;0.20;0.10;;;;;;;;;;4830906;29;20060;-89
2022/08/01 16:17:00;;;;;;;0.20;0.10;;;;;;;;;;4818129;29;20414;-87
2022/08/01 16:19:26;;;;;;;0.20;0.10;;;;;;;;;;4799846;29;20046;-86
2022/08/01 16:21:52;;;;;;;0.20;0.10;;;;;;;;;;4818204;29;20436;-86
2022/08/01 16:24:22;;;;;;;0.20;0.10;;;;;;;;;;4844381;29;20197;-86
2022/08/01 16:26:54;;;;;;;0.20;0.10;;;;;;;;;;4827750;29;20053;-85
2022/08/01 16:29:20;;;;;;;0.20;0.10;;;;;;;;;;4836098;29;20126;-88
2022/08/01 16:32:51;;;;;;;0.20;0.03;;;;;;;;;;4819329;29;20050;-88
2022/08/01 16:35:24;;;;;;;0.20;0.10;;;;;;;;;;4818790;29;20045;-87
2022/08/01 16:38:25;;;;;;;0.20;0.10;;;;;;;;;;4804890;29;20099;-86
2022/08/01 16:40:54;;;;;;;0.20;0.10;;;;;;;;;;4818842;29;20053;-84
2022/08/01 16:43:20;;;;;;;0.20;0.10;;;;;;;;;;4829313;29;20098;-83
2022/08/01 16:45:49;;;;;;;0.20;0.10;;;;;;;;;;4831149;29;20180;-86
2022/08/01 16:48:17;;;;;;;0.20;0.10;;;;;;;;;;4804484;29;20054;-87
2022/08/01 16:50:58;;;;;;;0.20;0.10;;;;;;;;;;4816143;29;20600;-89
2022/08/01 16:53:24;;;;;;;0.20;0.10;;;;;;;;;;4812996;29;20080;-85
2022/08/01 16:55:51;;;;;;;0.20;0.10;;;;;;;;;;4836880;29;20089;-85
2022/08/01 16:58:25;;;;;;;0.20;0.10;;;;;;;;;;4819615;29;20056;-85
2022/08/01 17:00:52;;;;;;;0.20;0.10;;;;;;;;;;4834634;29;20086;-85
2022/08/01 17:03:22;;;;;;;0.20;0.10;;;;;;;;;;4826818;29;20704;-87
2022/08/01 17:05:54;;;;;;;0.20;0.10;;;;;;;;;;4832416;29;20045;-90
2022/08/01 17:08:20;;;;;;;;;;;;;;;;;;4826700;29;20550;-90
2022/08/01 17:10:47;;;;;;;0.20;0.10;;;;;;;;;;4843813;29;19920;-87
2022/08/01 17:13:13;;;;;;;0.20;0.10;;;;;;;;;;4841066;29;20475;-86
2022/08/01 17:15:39;;;;;;;0.20;0.10;;;;;;;;;;4824162;29;20125;-85
2022/08/01 17:18:09;;;;;;;0.20;0.10;;;;;;;;;;4826947;29;20034;-87
2022/08/01 17:20:35;;;;;;;0.20;0.10;;;;;;;;;;4814431;29;20044;-86
2022/08/01 17:23:01;;;;;;;0.20;0.10;;;;;;;;;;4819910;29;20040;-85
2022/08/01 17:25:27;;;;;;;0.20;0.10;;;;;;;;;;4824759;29;20412;-86
2022/08/01 17:27:53;;;;;;;0.20;0.10;;;;;;;;;;4822118;29;20044;-84
2022/08/01 17:30:20;;;;;;;0.20;0.10;;;;;;;;;;4808834;29;20060;-85
2022/08/01 17:32:46;;;;;;;0.20;0.10;;;;;;;;;;4843792;29;20571;-88
2022/08/01 17:35:18;;;;;;;;;;;;;;;;;;4814888;29;20061;-86
2022/08/01 17:37:45;;;;;;;0.20;0.10;;;;;;;;;;4825922;29;19932;-85